sensor_id;sensor_type;location;lat;lon;timestamp;pressure;altitude;pressure_sealevel;temperature;humidity
73600;BME280;61877;48.246;9.220;2022-10-17T00:00:46;94776.13;;;8.47;90.40
73600;BME280;61877;48.246;9.220;2022-10-17T00:03:11;94769.69;;;8.48;90.68
73600;BME280;61877;48.246;9.220;2022-10-17T00:05:38;94775.66;;;8.45;90.72
73600;BME280;61877;48.246;9.220;2022-10-17T00:08:04;94776.91;;;8.48;90.74
73600;BME280;61877;48.246;9.220;2022-10-17T00:10:30;94779.28;;;8.49;90.15
73600;BME280;61877;48.246;9.220;2022-10-17T00:12:56;94780.38;;;8.48;90.53
73600;BME280;61877;48.246;9.220;2022-10-17T00:15:22;94780.25;;;8.53;91.19
73600;BME280;61877;48.246;9.220;2022-10-17T00:17:47;94782.81;;;8.58;92.13
73600;BME280;61877;48.246;9.220;2022-10-17T00:20:13;94781.88;;;8.63;92.38
73600;BME280;61877;48.246;9.220;2022-10-17T00:22:39;94780.75;;;8.64;92.77
73600;BME280;61877;48.246;9.220;2022-10-17T00:25:05;94780.16;;;8.67;92.48
73600;BME280;61877;48.246;9.220;2022-10-17T00:27:59;94779.50;;;8.61;92.63
73600;BME280;61877;48.246;9.220;2022-10-17T00:30:46;94779.81;;;8.60;92.99
73600;BME280;61877;48.246;9.220;2022-10-17T00:33:34;94783.09;;;8.57;92.97
73600;BME280;61877;48.246;9.220;2022-10-17T00:39:27;94786.34;;;8.45;92.98
73600;BME280;61877;48.246;9.220;2022-10-17T00:42:01;94788.06;;;8.41;93.55
73600;BME280;61877;48.246;9.220;2022-10-17T00:44:59;94782.84;;;8.36;92.95
73600;BME280;61877;48.246;9.220;2022-10-17T00:50:28;94779.66;;;8.26;92.31
73600;BME280;61877;48.246;9.220;2022-10-17T00:52:55;94782.41;;;8.21;92.39
73600;BME280;61877;48.246;9.220;2022-10-17T00:55:27;94786.47;;;8.18;92.34
73600;BME280;61877;48.246;9.220;2022-10-17T00:57:55;94778.94;;;8.20;92.34
73600;BME280;61877;48.246;9.220;2022-10-17T01:00:21;94777.34;;;8.19;91.26
73600;BME280;61877;48.246;9.220;2022-10-17T01:02:48;94782.69;;;8.19;91.01
73600;BME280;61877;48.246;9.220;2022-10-17T01:05:14;94784.53;;;8.10;91.11
73600;BME280;61877;48.246;9.220;2022-10-17T01:07:42;94786.91;;;8.12;91.50
73600;BME280;61877;48.246;9.220;2022-10-17T01:10:09;94777.59;;;8.09;91.06
73600;BME280;61877;48.246;9.220;2022-10-17T01:12:47;94776.03;;;8.08;91.08
73600;BME280;61877;48.246;9.220;2022-10-17T01:15:26;94782.59;;;8.02;91.19
73600;BME280;61877;48.246;9.220;2022-10-17T01:18:04;94777.69;;;7.96;91.59
73600;BME280;61877;48.246;9.220;2022-10-17T01:21:01;94781.22;;;7.91;91.92
73600;BME280;61877;48.246;9.220;2022-10-17T01:24:08;94784.63;;;7.83;92.41
73600;BME280;61877;48.246;9.220;2022-10-17T01:26:55;94786.03;;;7.80;92.21
73600;BME280;61877;48.246;9.220;2022-10-17T01:29:33;94788.84;;;7.75;92.13
73600;BME280;61877;48.246;9.220;2022-10-17T01:32:09;94786.34;;;7.79;92.00
73600;BME280;61877;48.246;9.220;2022-10-17T01:34:45;94786.16;;;7.75;91.90
73600;BME280;61877;48.246;9.220;2022-10-17T01:37:17;94781.91;;;7.74;91.73
73600;BME280;61877;48.246;9.220;2022-10-17T01:39:47;94785.47;;;7.70;91.26
73600;BME280;61877;48.246;9.220;2022-10-17T01:42:17;94785.47;;;7.70;91.87
73600;BME280;61877;48.246;9.220;2022-10-17T01:44:50;94782.31;;;7.68;91.58
73600;BME280;61877;48.246;9.220;2022-10-17T01:47:20;94781.72;;;7.71;90.98
73600;BME280;61877;48.246;9.220;2022-10-17T01:49:50;94775.72;;;7.65;91.24
73600;BME280;61877;48.246;9.220;2022-10-17T01:52:20;94769.88;;;7.63;91.32
73600;BME280;61877;48.246;9.220;2022-10-17T01:54:49;94774.41;;;7.63;90.89
73600;BME280;61877;48.246;9.220;2022-10-17T01:57:20;94768.88;;;7.59;90.89
73600;BME280;61877;48.246;9.220;2022-10-17T01:59:51;94773.56;;;7.54;91.52
73600;BME280;61877;48.246;9.220;2022-10-17T02:02:19;94774.72;;;7.61;91.33
73600;BME280;61877;48.246;9.220;2022-10-17T02:04:46;94773.25;;;7.55;91.22
73600;BME280;61877;48.246;9.220;2022-10-17T02:07:12;94769.13;;;7.49;91.75
73600;BME280;61877;48.246;9.220;2022-10-17T02:09:38;94778.53;;;7.47;91.25
73600;BME280;61877;48.246;9.220;2022-10-17T02:12:17;94766.38;;;7.41;91.44
73600;BME280;61877;48.246;9.220;2022-10-17T02:14:58;94771.66;;;7.32;90.92
73600;BME280;61877;48.246;9.220;2022-10-17T02:17:34;94769.88;;;7.28;91.50
73600;BME280;61877;48.246;9.220;2022-10-17T02:20:09;94772.25;;;7.29;91.11
73600;BME280;61877;48.246;9.220;2022-10-17T02:22:43;94765.63;;;7.27;91.95
73600;BME280;61877;48.246;9.220;2022-10-17T02:25:15;94765.13;;;7.25;91.22
73600;BME280;61877;48.246;9.220;2022-10-17T02:27:46;94772.16;;;7.21;91.82
73600;BME280;61877;48.246;9.220;2022-10-17T02:30:18;94772.47;;;7.19;91.41
73600;BME280;61877;48.246;9.220;2022-10-17T02:32:51;94776.69;;;7.20;91.31
73600;BME280;61877;48.246;9.220;2022-10-17T02:35:19;94780.28;;;7.16;91.17
73600;BME280;61877;48.246;9.220;2022-10-17T02:37:46;94779.47;;;7.15;91.54
73600;BME280;61877;48.246;9.220;2022-10-17T02:40:14;94779.97;;;7.17;91.38
73600;BME280;61877;48.246;9.220;2022-10-17T02:42:43;94782.94;;;7.16;91.25
73600;BME280;61877;48.246;9.220;2022-10-17T02:45:10;94785.72;;;7.11;91.37
73600;BME280;61877;48.246;9.220;2022-10-17T02:47:42;94790.94;;;7.16;91.22
73600;BME280;61877;48.246;9.220;2022-10-17T02:50:12;94787.97;;;7.17;90.68
73600;BME280;61877;48.246;9.220;2022-10-17T02:52:43;94798.44;;;7.14;90.64
73600;BME280;61877;48.246;9.220;2022-10-17T02:55:14;94795.09;;;7.08;90.84
73600;BME280;61877;48.246;9.220;2022-10-17T02:57:47;94796.69;;;7.09;90.68
73600;BME280;61877;48.246;9.220;2022-10-17T03:00:14;94793.00;;;7.05;90.82
73600;BME280;61877;48.246;9.220;2022-10-17T03:02:42;94794.97;;;7.00;90.53
73600;BME280;61877;48.246;9.220;2022-10-17T03:05:09;94796.09;;;6.99;90.24
73600;BME280;61877;48.246;9.220;2022-10-17T03:07:36;94794.91;;;6.91;90.54
73600;BME280;61877;48.246;9.220;2022-10-17T03:10:02;94792.53;;;6.90;90.56
73600;BME280;61877;48.246;9.220;2022-10-17T03:12:27;94800.03;;;6.88;90.61
73600;BME280;61877;48.246;9.220;2022-10-17T03:14:53;94795.88;;;6.82;91.03
73600;BME280;61877;48.246;9.220;2022-10-17T03:17:18;94802.91;;;6.78;91.77
73600;BME280;61877;48.246;9.220;2022-10-17T03:19:43;94790.06;;;6.80;91.34
73600;BME280;61877;48.246;9.220;2022-10-17T03:22:09;94794.41;;;6.76;91.22
73600;BME280;61877;48.246;9.220;2022-10-17T03:24:36;94794.19;;;6.72;91.58
73600;BME280;61877;48.246;9.220;2022-10-17T03:27:01;94793.59;;;6.75;91.48
73600;BME280;61877;48.246;9.220;2022-10-17T03:29:27;94796.56;;;6.74;91.32
73600;BME280;61877;48.246;9.220;2022-10-17T03:31:52;94790.56;;;6.68;91.32
73600;BME280;61877;48.246;9.220;2022-10-17T03:34:17;94801.03;;;6.65;91.59
73600;BME280;61877;48.246;9.220;2022-10-17T03:36:43;94797.25;;;6.66;91.52
73600;BME280;61877;48.246;9.220;2022-10-17T03:39:08;94798.66;;;6.63;91.87
73600;BME280;61877;48.246;9.220;2022-10-17T03:41:35;94810.09;;;6.64;91.14
73600;BME280;61877;48.246;9.220;2022-10-17T03:44:01;94804.06;;;6.58;91.48
73600;BME280;61877;48.246;9.220;2022-10-17T03:46:26;94800.41;;;6.54;91.07
73600;BME280;61877;48.246;9.220;2022-10-17T03:48:52;94804.94;;;6.53;91.66
73600;BME280;61877;48.246;9.220;2022-10-17T03:51:17;94812.94;;;6.53;91.25
73600;BME280;61877;48.246;9.220;2022-10-17T03:53:43;94808.50;;;6.49;91.45
73600;BME280;61877;48.246;9.220;2022-10-17T03:56:10;94808.50;;;6.49;91.08
73600;BME280;61877;48.246;9.220;2022-10-17T03:58:37;94808.78;;;6.47;91.37
73600;BME280;61877;48.246;9.220;2022-10-17T04:01:03;94811.47;;;6.47;90.75
73600;BME280;61877;48.246;9.220;2022-10-17T04:03:29;94808.78;;;6.47;90.97
73600;BME280;61877;48.246;9.220;2022-10-17T04:05:57;94816.78;;;6.47;91.26
73600;BME280;61877;48.246;9.220;2022-10-17T04:08:23;94812.06;;;6.44;91.24
73600;BME280;61877;48.246;9.220;2022-10-17T04:10:48;94813.41;;;6.42;91.33
73600;BME280;61877;48.246;9.220;2022-10-17T04:13:16;94819.34;;;6.39;91.23
73600;BME280;61877;48.246;9.220;2022-10-17T04:15:52;94819.91;;;6.36;91.15
73600;BME280;61877;48.246;9.220;2022-10-17T04:18:18;94818.13;;;6.31;91.50
73600;BME280;61877;48.246;9.220;2022-10-17T04:20:43;94821.28;;;6.33;92.00
73600;BME280;61877;48.246;9.220;2022-10-17T04:23:09;94814.38;;;6.32;91.76
73600;BME280;61877;48.246;9.220;2022-10-17T04:25:34;94817.84;;;6.33;91.29
73600;BME280;61877;48.246;9.220;2022-10-17T04:28:00;94825.94;;;6.28;91.01
73600;BME280;61877;48.246;9.220;2022-10-17T04:30:25;94831.25;;;6.28;92.07
73600;BME280;61877;48.246;9.220;2022-10-17T04:32:52;94827.00;;;6.27;91.70
73600;BME280;61877;48.246;9.220;2022-10-17T04:35:17;94824.91;;;6.24;91.67
73600;BME280;61877;48.246;9.220;2022-10-17T04:37:43;94830.53;;;6.22;91.94
73600;BME280;61877;48.246;9.220;2022-10-17T04:40:09;94838.53;;;6.22;92.34
73600;BME280;61877;48.246;9.220;2022-10-17T04:42:34;94841.19;;;6.22;92.36
73600;BME280;61877;48.246;9.220;2022-10-17T04:45:00;94841.50;;;6.21;92.10
73600;BME280;61877;48.246;9.220;2022-10-17T04:47:25;94841.78;;;6.19;92.07
73600;BME280;61877;48.246;9.220;2022-10-17T04:49:52;94846.09;;;6.15;91.75
73600;BME280;61877;48.246;9.220;2022-10-17T04:52:17;94852.00;;;6.12;92.05
73600;BME280;61877;48.246;9.220;2022-10-17T04:54:43;94847.47;;;6.13;91.43
73600;BME280;61877;48.246;9.220;2022-10-17T04:57:08;94841.16;;;6.09;91.43
73600;BME280;61877;48.246;9.220;2022-10-17T04:59:34;94846.69;;;6.12;91.83
73600;BME280;61877;48.246;9.220;2022-10-17T05:01:59;94844.75;;;6.18;91.93
73600;BME280;61877;48.246;9.220;2022-10-17T05:04:25;94843.94;;;6.17;91.57
73600;BME280;61877;48.246;9.220;2022-10-17T05:06:52;94840.00;;;6.15;91.68
73600;BME280;61877;48.246;9.220;2022-10-17T05:09:17;94836.03;;;6.12;91.36
73600;BME280;61877;48.246;9.220;2022-10-17T05:11:42;94833.44;;;6.07;90.96
73600;BME280;61877;48.246;9.220;2022-10-17T05:14:08;94843.50;;;6.10;91.51
73600;BME280;61877;48.246;9.220;2022-10-17T05:16:34;94845.19;;;6.06;91.53
73600;BME280;61877;48.246;9.220;2022-10-17T05:18:59;94841.34;;;6.12;91.53
73600;BME280;61877;48.246;9.220;2022-10-17T05:21:27;94839.56;;;6.08;92.19
73600;BME280;61877;48.246;9.220;2022-10-17T05:23:55;94839.78;;;6.11;91.48
73600;BME280;61877;48.246;9.220;2022-10-17T05:26:21;94838.41;;;6.14;91.79
73600;BME280;61877;48.246;9.220;2022-10-17T05:28:46;94835.13;;;6.03;92.12
73600;BME280;61877;48.246;9.220;2022-10-17T05:31:12;94837.19;;;6.06;92.08
73600;BME280;61877;48.246;9.220;2022-10-17T05:33:38;94845.47;;;6.05;91.74
73600;BME280;61877;48.246;9.220;2022-10-17T05:36:04;94846.25;;;6.05;91.63
73600;BME280;61877;48.246;9.220;2022-10-17T05:38:30;94852.59;;;5.91;92.88
73600;BME280;61877;48.246;9.220;2022-10-17T05:40:58;94843.81;;;5.90;92.59
73600;BME280;61877;48.246;9.220;2022-10-17T05:43:23;94853.84;;;5.98;92.74
73600;BME280;61877;48.246;9.220;2022-10-17T05:45:49;94856.44;;;6.03;92.51
73600;BME280;61877;48.246;9.220;2022-10-17T05:48:14;94854.75;;;6.07;92.46
73600;BME280;61877;48.246;9.220;2022-10-17T05:50:40;94856.75;;;6.15;91.61
73600;BME280;61877;48.246;9.220;2022-10-17T05:53:05;94857.47;;;6.21;91.36
73600;BME280;61877;48.246;9.220;2022-10-17T05:55:31;94859.41;;;6.15;91.52
73600;BME280;61877;48.246;9.220;2022-10-17T05:57:58;94856.75;;;6.15;91.98
73600;BME280;61877;48.246;9.220;2022-10-17T06:00:23;94857.72;;;6.06;92.17
73600;BME280;61877;48.246;9.220;2022-10-17T06:02:49;94864.34;;;6.08;92.68
73600;BME280;61877;48.246;9.220;2022-10-17T06:05:15;94862.44;;;6.09;92.31
73600;BME280;61877;48.246;9.220;2022-10-17T06:07:40;94871.75;;;6.11;92.23
73600;BME280;61877;48.246;9.220;2022-10-17T06:10:06;94879.53;;;6.08;92.33
73600;BME280;61877;48.246;9.220;2022-10-17T06:12:32;94882.41;;;6.11;92.00
73600;BME280;61877;48.246;9.220;2022-10-17T06:14:59;94884.19;;;6.16;92.21
73600;BME280;61877;48.246;9.220;2022-10-17T06:17:24;94891.59;;;6.19;91.91
73600;BME280;61877;48.246;9.220;2022-10-17T06:19:50;94891.66;;;6.32;91.50
73600;BME280;61877;48.246;9.220;2022-10-17T06:22:15;94892.66;;;6.36;91.00
73600;BME280;61877;48.246;9.220;2022-10-17T06:24:41;94891.50;;;6.42;91.48
73600;BME280;61877;48.246;9.220;2022-10-17T06:27:06;94888.66;;;6.52;91.03
73600;BME280;61877;48.246;9.220;2022-10-17T06:29:32;94891.75;;;6.60;91.07
73600;BME280;61877;48.246;9.220;2022-10-17T06:31:59;94894.72;;;6.72;91.05
73600;BME280;61877;48.246;9.220;2022-10-17T06:34:24;94903.66;;;6.81;90.97
73600;BME280;61877;48.246;9.220;2022-10-17T06:36:50;94890.22;;;6.86;89.92
73600;BME280;61877;48.246;9.220;2022-10-17T06:39:15;94898.63;;;6.93;90.39
73600;BME280;61877;48.246;9.220;2022-10-17T06:41:40;94899.03;;;7.00;90.07
73600;BME280;61877;48.246;9.220;2022-10-17T06:44:06;94897.84;;;7.06;90.32
73600;BME280;61877;48.246;9.220;2022-10-17T06:46:32;94906.75;;;7.15;90.24
73600;BME280;61877;48.246;9.220;2022-10-17T06:48:59;94903.22;;;7.19;89.64
73600;BME280;61877;48.246;9.220;2022-10-17T06:51:24;94914.00;;;7.28;90.12
73600;BME280;61877;48.246;9.220;2022-10-17T06:53:50;94915.88;;;7.41;89.81
73600;BME280;61877;48.246;9.220;2022-10-17T06:56:15;94918.81;;;7.53;89.37
73600;BME280;61877;48.246;9.220;2022-10-17T06:58:40;94931.50;;;7.47;90.00
73600;BME280;61877;48.246;9.220;2022-10-17T07:01:07;94930.59;;;7.52;89.96
73600;BME280;61877;48.246;9.220;2022-10-17T07:03:33;94933.25;;;7.52;90.20
73600;BME280;61877;48.246;9.220;2022-10-17T07:06:01;94939.50;;;7.61;90.29
73600;BME280;61877;48.246;9.220;2022-10-17T07:08:26;94929.69;;;7.70;90.13
73600;BME280;61877;48.246;9.220;2022-10-17T07:10:53;94940.56;;;7.87;89.54
73600;BME280;61877;48.246;9.220;2022-10-17T07:13:19;94936.38;;;7.81;89.27
73600;BME280;61877;48.246;9.220;2022-10-17T07:15:45;94932.44;;;7.92;89.87
73600;BME280;61877;48.246;9.220;2022-10-17T07:18:11;94938.19;;;8.21;89.61
73600;BME280;61877;48.246;9.220;2022-10-17T07:20:36;94940.25;;;8.38;88.71
73600;BME280;61877;48.246;9.220;2022-10-17T07:23:03;94942.34;;;8.63;88.41
73600;BME280;61877;48.246;9.220;2022-10-17T07:25:29;94945.97;;;8.89;87.87
73600;BME280;61877;48.246;9.220;2022-10-17T07:27:54;94953.19;;;9.10;87.23
73600;BME280;61877;48.246;9.220;2022-10-17T07:30:20;94952.31;;;9.24;86.68
73600;BME280;61877;48.246;9.220;2022-10-17T07:32:46;94956.94;;;9.32;86.37
73600;BME280;61877;48.246;9.220;2022-10-17T07:35:12;94951.19;;;9.47;86.05
73600;BME280;61877;48.246;9.220;2022-10-17T07:37:38;94957.41;;;9.64;86.09
73600;BME280;61877;48.246;9.220;2022-10-17T07:40:07;94958.97;;;9.65;85.64
73600;BME280;61877;48.246;9.220;2022-10-17T07:42:35;94961.50;;;9.70;86.14
73600;BME280;61877;48.246;9.220;2022-10-17T07:45:01;94963.31;;;9.92;85.77
73600;BME280;61877;48.246;9.220;2022-10-17T07:47:26;94961.91;;;9.94;85.82
73600;BME280;61877;48.246;9.220;2022-10-17T07:49:52;94959.25;;;10.03;86.11
73600;BME280;61877;48.246;9.220;2022-10-17T07:52:17;94963.56;;;10.12;86.58
73600;BME280;61877;48.246;9.220;2022-10-17T07:54:43;94960.59;;;10.22;86.60
73600;BME280;61877;48.246;9.220;2022-10-17T07:57:10;94967.09;;;10.56;85.58
73600;BME280;61877;48.246;9.220;2022-10-17T07:59:43;94960.59;;;10.82;84.76
73600;BME280;61877;48.246;9.220;2022-10-17T08:02:13;94966.25;;;11.06;84.34
73600;BME280;61877;48.246;9.220;2022-10-17T08:04:42;94959.25;;;11.31;83.75
73600;BME280;61877;48.246;9.220;2022-10-17T08:07:08;94961.41;;;11.46;83.07
73600;BME280;61877;48.246;9.220;2022-10-17T08:09:33;94961.06;;;11.64;83.07
73600;BME280;61877;48.246;9.220;2022-10-17T08:11:58;94960.09;;;11.69;83.47
73600;BME280;61877;48.246;9.220;2022-10-17T08:14:25;94965.38;;;11.95;83.00
73600;BME280;61877;48.246;9.220;2022-10-17T08:16:53;94961.28;;;12.18;82.50
73600;BME280;61877;48.246;9.220;2022-10-17T08:19:19;94957.19;;;12.41;81.77
73600;BME280;61877;48.246;9.220;2022-10-17T08:21:44;94958.91;;;12.66;81.56
73600;BME280;61877;48.246;9.220;2022-10-17T08:24:10;94958.03;;;12.94;80.14
73600;BME280;61877;48.246;9.220;2022-10-17T08:26:35;94966.09;;;13.15;79.54
73600;BME280;61877;48.246;9.220;2022-10-17T08:29:00;94965.59;;;13.34;79.92
73600;BME280;61877;48.246;9.220;2022-10-17T08:31:27;94958.78;;;13.48;79.10
73600;BME280;61877;48.246;9.220;2022-10-17T08:33:54;94968.59;;;13.65;79.62
73600;BME280;61877;48.246;9.220;2022-10-17T08:36:20;94962.22;;;13.69;79.14
73600;BME280;61877;48.246;9.220;2022-10-17T08:38:45;94956.47;;;13.83;79.06
73600;BME280;61877;48.246;9.220;2022-10-17T08:41:14;94964.03;;;14.01;78.72
73600;BME280;61877;48.246;9.220;2022-10-17T08:43:56;94967.75;;;14.09;79.64
73600;BME280;61877;48.246;9.220;2022-10-17T08:46:29;94968.41;;;14.18;79.26
73600;BME280;61877;48.246;9.220;2022-10-17T08:48:57;94974.06;;;14.25;78.79
73600;BME280;61877;48.246;9.220;2022-10-17T08:51:27;94972.03;;;14.46;78.03
73600;BME280;61877;48.246;9.220;2022-10-17T08:53:56;94970.97;;;14.63;78.11
73600;BME280;61877;48.246;9.220;2022-10-17T08:56:29;94971.63;;;14.84;77.67
73600;BME280;61877;48.246;9.220;2022-10-17T08:58:57;94972.91;;;15.02;77.10
73600;BME280;61877;48.246;9.220;2022-10-17T09:01:32;94975.56;;;15.14;78.01
73600;BME280;61877;48.246;9.220;2022-10-17T09:07:05;94979.91;;;15.58;76.87
73600;BME280;61877;48.246;9.220;2022-10-17T09:09:39;94978.72;;;15.87;75.96
73600;BME280;61877;48.246;9.220;2022-10-17T09:12:14;94976.63;;;15.96;76.45
73600;BME280;61877;48.246;9.220;2022-10-17T09:14:51;94984.31;;;16.25;76.54
73600;BME280;61877;48.246;9.220;2022-10-17T09:17:28;94977.81;;;16.60;75.21
73600;BME280;61877;48.246;9.220;2022-10-17T09:20:03;94982.84;;;16.97;73.92
73600;BME280;61877;48.246;9.220;2022-10-17T09:22:36;94988.94;;;17.09;74.30
73600;BME280;61877;48.246;9.220;2022-10-17T09:25:09;94987.53;;;17.53;73.25
73600;BME280;61877;48.246;9.220;2022-10-17T09:27:39;94974.97;;;17.87;72.67
73600;BME280;61877;48.246;9.220;2022-10-17T09:30:29;94979.78;;;18.20;71.93
73600;BME280;61877;48.246;9.220;2022-10-17T09:32:57;94973.16;;;18.66;68.85
73600;BME280;61877;48.246;9.220;2022-10-17T09:35:24;94976.16;;;18.83;68.44
73600;BME280;61877;48.246;9.220;2022-10-17T09:37:51;94979.94;;;19.05;67.02
73600;BME280;61877;48.246;9.220;2022-10-17T09:40:25;94975.22;;;19.02;67.30
73600;BME280;61877;48.246;9.220;2022-10-17T09:42:52;94979.09;;;19.01;68.43
73600;BME280;61877;48.246;9.220;2022-10-17T09:45:19;94980.00;;;19.08;68.78
73600;BME280;61877;48.246;9.220;2022-10-17T09:47:48;94980.28;;;19.30;69.15
73600;BME280;61877;48.246;9.220;2022-10-17T09:50:21;94981.91;;;19.08;68.19
73600;BME280;61877;48.246;9.220;2022-10-17T09:52:49;94978.09;;;19.42;68.27
73600;BME280;61877;48.246;9.220;2022-10-17T09:55:16;94979.53;;;19.66;67.79
73600;BME280;61877;48.246;9.220;2022-10-17T09:57:54;94979.41;;;19.92;66.23
73600;BME280;61877;48.246;9.220;2022-10-17T10:00:21;94976.88;;;20.57;64.48
73600;BME280;61877;48.246;9.220;2022-10-17T10:02:47;94970.81;;;20.77;63.92
73600;BME280;61877;48.246;9.220;2022-10-17T10:05:15;94976.97;;;21.32;61.62
73600;BME280;61877;48.246;9.220;2022-10-17T10:07:45;94972.69;;;21.34;57.17
73600;BME280;61877;48.246;9.220;2022-10-17T10:10:26;94967.81;;;21.86;57.65
73600;BME280;61877;48.246;9.220;2022-10-17T10:13:04;94967.50;;;22.12;52.41
73600;BME280;61877;48.246;9.220;2022-10-17T10:15:33;94965.56;;;22.72;53.85
73600;BME280;61877;48.246;9.220;2022-10-17T10:18:00;94974.84;;;23.24;52.84
73600;BME280;61877;48.246;9.220;2022-10-17T10:20:30;94971.59;;;23.60;50.35
73600;BME280;61877;48.246;9.220;2022-10-17T10:23:14;94981.56;;;24.05;50.23
73600;BME280;61877;48.246;9.220;2022-10-17T10:25:50;94974.00;;;24.27;49.10
73600;BME280;61877;48.246;9.220;2022-10-17T10:28:16;94972.16;;;24.58;48.40
73600;BME280;61877;48.246;9.220;2022-10-17T10:30:46;94967.38;;;25.13;46.11
73600;BME280;61877;48.246;9.220;2022-10-17T10:33:12;94960.41;;;25.42;46.03
73600;BME280;61877;48.246;9.220;2022-10-17T10:35:38;94970.63;;;25.01;44.11
73600;BME280;61877;48.246;9.220;2022-10-17T10:38:09;94976.31;;;25.20;44.13
73600;BME280;61877;48.246;9.220;2022-10-17T10:40:44;94975.03;;;25.32;44.20
73600;BME280;61877;48.246;9.220;2022-10-17T10:43:20;94969.63;;;25.59;43.91
73600;BME280;61877;48.246;9.220;2022-10-17T10:45:47;94972.66;;;25.68;44.14
73600;BME280;61877;48.246;9.220;2022-10-17T10:48:19;94973.56;;;25.58;46.11
73600;BME280;61877;48.246;9.220;2022-10-17T10:50:46;94968.59;;;25.79;41.59
73600;BME280;61877;48.246;9.220;2022-10-17T10:53:30;94968.13;;;26.14;43.29
73600;BME280;61877;48.246;9.220;2022-10-17T10:55:59;94973.94;;;26.96;40.29
73600;BME280;61877;48.246;9.220;2022-10-17T10:58:35;94978.00;;;27.34;40.07
73600;BME280;61877;48.246;9.220;2022-10-17T11:01:11;94978.72;;;27.97;39.67
73600;BME280;61877;48.246;9.220;2022-10-17T11:03:41;94973.97;;;27.58;38.87
73600;BME280;61877;48.246;9.220;2022-10-17T11:06:15;94975.56;;;27.36;39.58
73600;BME280;61877;48.246;9.220;2022-10-17T11:08:47;94967.25;;;27.17;40.08
73600;BME280;61877;48.246;9.220;2022-10-17T11:11:17;94966.72;;;27.02;41.47
73600;BME280;61877;48.246;9.220;2022-10-17T11:13:50;94969.03;;;26.57;42.26
73600;BME280;61877;48.246;9.220;2022-10-17T11:16:24;94956.09;;;26.81;42.07
73600;BME280;61877;48.246;9.220;2022-10-17T11:18:57;94957.59;;;26.86;42.20
73600;BME280;61877;48.246;9.220;2022-10-17T11:21:30;94961.72;;;27.40;40.29
73600;BME280;61877;48.246;9.220;2022-10-17T11:24:07;94960.72;;;27.69;38.40
73600;BME280;61877;48.246;9.220;2022-10-17T11:26:40;94957.38;;;28.33;39.63
73600;BME280;61877;48.246;9.220;2022-10-17T11:29:08;94956.38;;;28.43;38.60
73600;BME280;61877;48.246;9.220;2022-10-17T11:31:37;94959.53;;;29.22;36.79
73600;BME280;61877;48.246;9.220;2022-10-17T11:34:07;94950.16;;;29.77;36.09
73600;BME280;61877;48.246;9.220;2022-10-17T11:36:38;94953.22;;;29.66;35.88
73600;BME280;61877;48.246;9.220;2022-10-17T11:39:10;94944.25;;;30.28;35.85
73600;BME280;61877;48.246;9.220;2022-10-17T11:41:42;94952.81;;;31.18;33.24
73600;BME280;61877;48.246;9.220;2022-10-17T11:44:17;94954.88;;;31.83;31.69
73600;BME280;61877;48.246;9.220;2022-10-17T11:46:46;94950.31;;;31.67;31.08
73600;BME280;61877;48.246;9.220;2022-10-17T11:49:17;94947.34;;;31.27;30.77
73600;BME280;61877;48.246;9.220;2022-10-17T11:51:46;94950.38;;;31.98;31.24
73600;BME280;61877;48.246;9.220;2022-10-17T11:54:17;94942.63;;;31.93;28.88
73600;BME280;61877;48.246;9.220;2022-10-17T11:56:48;94948.94;;;32.15;28.37
73600;BME280;61877;48.246;9.220;2022-10-17T12:02:20;94940.47;;;32.49;27.65
73600;BME280;61877;48.246;9.220;2022-10-17T12:04:55;94938.56;;;32.86;28.74
73600;BME280;61877;48.246;9.220;2022-10-17T12:07:30;94940.00;;;32.41;28.97
73600;BME280;61877;48.246;9.220;2022-10-17T12:10:06;94943.03;;;33.59;27.11
73600;BME280;61877;48.246;9.220;2022-10-17T12:12:40;94948.75;;;33.55;28.43
73600;BME280;61877;48.246;9.220;2022-10-17T12:15:29;94951.22;;;33.62;27.35
73600;BME280;61877;48.246;9.220;2022-10-17T12:17:55;94942.22;;;34.04;26.40
73600;BME280;61877;48.246;9.220;2022-10-17T12:20:30;94942.56;;;33.42;27.53
73600;BME280;61877;48.246;9.220;2022-10-17T12:23:01;94946.75;;;33.56;26.57
73600;BME280;61877;48.246;9.220;2022-10-17T12:25:30;94943.13;;;33.28;27.49
73600;BME280;61877;48.246;9.220;2022-10-17T12:28:13;94936.97;;;33.97;25.82
73600;BME280;61877;48.246;9.220;2022-10-17T12:30:56;94945.00;;;33.22;27.57
73600;BME280;61877;48.246;9.220;2022-10-17T12:33:29;94935.13;;;33.48;28.23
73600;BME280;61877;48.246;9.220;2022-10-17T12:42:31;94930.13;;;34.16;26.64
73600;BME280;61877;48.246;9.220;2022-10-17T12:44:57;94927.47;;;34.63;25.92
73600;BME280;61877;48.246;9.220;2022-10-17T12:47:27;94933.00;;;35.28;25.83
73600;BME280;61877;48.246;9.220;2022-10-17T12:50:00;94940.72;;;35.33;23.33
73600;BME280;61877;48.246;9.220;2022-10-17T12:52:55;94936.16;;;35.97;24.55
73600;BME280;61877;48.246;9.220;2022-10-17T12:55:23;94932.34;;;35.71;24.23
73600;BME280;61877;48.246;9.220;2022-10-17T12:57:54;94933.22;;;34.09;25.82
73600;BME280;61877;48.246;9.220;2022-10-17T13:00:24;94918.63;;;34.64;25.91
73600;BME280;61877;48.246;9.220;2022-10-17T13:02:53;94935.44;;;33.50;24.29
73600;BME280;61877;48.246;9.220;2022-10-17T13:05:27;94928.25;;;34.96;24.36
73600;BME280;61877;48.246;9.220;2022-10-17T13:07:54;94930.38;;;35.01;23.23
73600;BME280;61877;48.246;9.220;2022-10-17T13:10:23;94927.81;;;35.36;22.86
73600;BME280;61877;48.246;9.220;2022-10-17T13:12:52;94930.63;;;35.74;19.73
73600;BME280;61877;48.246;9.220;2022-10-17T13:15:19;94937.75;;;35.60;20.63
73600;BME280;61877;48.246;9.220;2022-10-17T13:17:54;94938.63;;;35.81;23.08
73600;BME280;61877;48.246;9.220;2022-10-17T13:20:23;94937.22;;;36.29;23.15
73600;BME280;61877;48.246;9.220;2022-10-17T13:22:49;94947.06;;;37.03;22.03
73600;BME280;61877;48.246;9.220;2022-10-17T13:25:16;94944.34;;;36.59;22.92
73600;BME280;61877;48.246;9.220;2022-10-17T13:27:42;94949.63;;;36.86;23.90
73600;BME280;61877;48.246;9.220;2022-10-17T13:30:25;94949.88;;;37.03;23.77
73600;BME280;61877;48.246;9.220;2022-10-17T13:32:55;94949.53;;;37.15;23.18
73600;BME280;61877;48.246;9.220;2022-10-17T13:35:26;94953.84;;;37.16;22.61
73600;BME280;61877;48.246;9.220;2022-10-17T13:37:53;94947.03;;;36.83;22.16